Terminal Aerodrome Forecast
Issued by NWS

Home | Current Version | Previous Version | Text Only | Print | Product List | Glossary On
Versions: 1 2 3 4 5 6 7 8 9 10 11 12 13 14 15 16 17 18 19 20
000
FTUS46 KSGX 231853 AAA
TAFCRQ
TAF AMD
KCRQ 231853Z 2319/2418 24008KT P6SM SCT100
     FM240100 VRB04KT P6SM FEW010
     FM240600 VRB02KT P6SM BKN010
     FM241600 VRB04KT P6SM FEW012=

USA.gov is the U.S. government's official web portal to all federal, state and local government web resources and services.